createdAt,value
2023-04-19T00:00:52.428Z,18.13
2023-04-19T00:05:59.203Z,18.00
2023-04-19T00:11:00.566Z,19.23
2023-04-19T00:16:03.039Z,18.02
2023-04-19T00:21:04.565Z,18.08
2023-04-19T00:26:05.900Z,16.23
2023-04-19T00:31:07.213Z,18.75
2023-04-19T00:36:08.778Z,17.20
2023-04-19T00:41:10.108Z,17.67
2023-04-19T00:46:11.584Z,21.88
2023-04-19T00:51:12.981Z,17.07
2023-04-19T00:56:15.566Z,17.40
2023-04-19T01:01:17.056Z,18.37
2023-04-19T01:06:18.371Z,17.02
2023-04-19T01:11:19.695Z,20.85
2023-04-19T01:16:21.018Z,18.23
2023-04-19T01:21:22.516Z,19.35
2023-04-19T01:26:23.840Z,17.00
2023-04-19T01:31:25.154Z,17.20
2023-04-19T01:36:27.747Z,17.95
2023-04-19T01:41:29.799Z,17.23
2023-04-19T01:46:31.156Z,19.77
2023-04-19T01:51:32.457Z,17.57
2023-04-19T01:56:33.854Z,17.63
2023-04-19T02:01:35.153Z,18.77
2023-04-19T02:06:36.470Z,20.00
2023-04-19T02:11:37.789Z,24.55
2023-04-19T02:16:39.097Z,18.93
2023-04-19T02:21:40.424Z,21.05
2023-04-19T02:26:41.727Z,19.10
2023-04-19T02:31:45.218Z,17.90
2023-04-19T02:36:46.533Z,17.27
2023-04-19T02:41:47.810Z,18.47
2023-04-19T02:46:52.345Z,19.40
2023-04-19T02:51:53.593Z,17.85
2023-04-19T02:56:54.840Z,18.83
2023-04-19T03:01:56.216Z,23.38
2023-04-19T03:06:57.512Z,19.87
2023-04-19T03:11:58.803Z,18.80
2023-04-19T03:17:00.291Z,17.73
2023-04-19T03:22:01.534Z,18.63
2023-04-19T03:27:02.933Z,17.35
2023-04-19T03:32:04.270Z,19.33
2023-04-19T03:37:05.661Z,16.95
2023-04-19T03:42:06.938Z,17.48
2023-04-19T03:47:08.212Z,17.07
2023-04-19T03:52:09.552Z,19.45
2023-04-19T03:57:13.217Z,16.53
2023-04-19T04:02:14.534Z,15.35
2023-04-19T04:07:15.926Z,15.13
2023-04-19T04:12:17.241Z,15.97
2023-04-19T04:17:18.631Z,16.63
2023-04-19T04:22:20.507Z,16.37
2023-04-19T04:27:21.922Z,17.20
2023-04-19T04:32:23.661Z,15.90
2023-04-19T04:37:25.586Z,13.23
2023-04-19T04:42:27.516Z,18.67
2023-04-19T04:47:32.455Z,16.53
2023-04-19T04:52:33.816Z,15.25
2023-04-19T04:57:35.470Z,19.42
2023-04-19T05:02:37.434Z,15.73
2023-04-19T05:07:38.787Z,16.58
2023-04-19T05:12:40.174Z,27.17
2023-04-19T05:17:43.138Z,23.00
2023-04-19T05:22:44.540Z,18.48
2023-04-19T05:27:45.890Z,17.77
2023-04-19T05:32:47.189Z,18.92
2023-04-19T05:37:48.613Z,18.47
2023-04-19T05:42:49.939Z,16.70
2023-04-19T05:47:51.218Z,17.85
2023-04-19T05:52:52.514Z,16.00
2023-04-19T05:57:53.831Z,18.00
2023-04-19T06:02:55.198Z,15.97
2023-04-19T06:08:02.696Z,14.93
2023-04-19T06:13:05.686Z,16.00
2023-04-19T06:18:10.280Z,15.83
2023-04-19T06:23:20.509Z,15.80
2023-04-19T06:28:21.971Z,15.17
2023-04-19T06:33:23.351Z,15.40
2023-04-19T06:38:24.677Z,14.52
2023-04-19T06:43:25.993Z,18.67
2023-04-19T06:48:27.846Z,16.15
2023-04-19T06:53:29.184Z,22.83
2023-04-19T06:58:34.038Z,17.15
2023-04-19T07:03:36.353Z,18.15
2023-04-19T07:08:49.433Z,15.90
2023-04-19T07:13:51.777Z,12.40
2023-04-19T07:18:53.084Z,11.73
2023-04-19T07:23:54.387Z,12.23
2023-04-19T07:28:56.206Z,12.00
2023-04-19T07:33:57.557Z,36.90
2023-04-19T07:38:58.867Z,13.80
2023-04-19T07:44:00.289Z,12.18
2023-04-19T07:49:01.663Z,11.75
2023-04-19T07:54:03.264Z,20.20
2023-04-19T07:59:08.960Z,10.77
2023-04-19T08:04:11.140Z,13.60
2023-04-19T08:09:12.581Z,10.88
2023-04-19T08:14:28.496Z,10.90
2023-04-19T08:19:35.297Z,16.08
2023-04-19T08:24:36.732Z,12.85
2023-04-19T08:29:40.854Z,11.40
2023-04-19T08:34:42.130Z,10.95
2023-04-19T08:39:43.444Z,10.82
2023-04-19T08:45:02.243Z,13.10
2023-04-19T08:50:24.082Z,12.63
2023-04-19T08:55:29.888Z,12.15
2023-04-19T09:00:33.037Z,10.95
2023-04-19T09:05:34.474Z,16.07
2023-04-19T09:10:35.921Z,12.60
2023-04-19T09:15:41.580Z,13.93
2023-04-19T09:20:46.260Z,14.20
2023-04-19T09:26:19.408Z,11.45
2023-04-19T09:36:29.739Z,10.13
2023-04-19T09:41:32.801Z,11.70
2023-04-19T09:46:34.196Z,16.67
2023-04-19T09:51:44.930Z,12.60
2023-04-19T09:56:46.618Z,14.88
2023-04-19T10:01:50.077Z,13.07
2023-04-19T10:07:19.416Z,13.15
2023-04-19T10:12:38.538Z,12.60
2023-04-19T10:17:36.745Z,12.00
2023-04-19T10:22:38.749Z,13.18
2023-04-19T10:27:41.796Z,20.30
2023-04-19T10:32:44.758Z,12.90
2023-04-19T10:38:04.444Z,11.63
2023-04-19T10:43:15.034Z,11.37
2023-04-19T10:48:33.222Z,11.93
2023-04-19T10:53:44.440Z,10.32
2023-04-19T10:59:11.456Z,11.38
2023-04-19T11:04:13.966Z,11.23
2023-04-19T11:09:21.978Z,10.27
2023-04-19T11:14:24.169Z,11.00
2023-04-19T11:19:25.811Z,14.47
2023-04-19T11:24:27.130Z,11.85
2023-04-19T11:29:28.437Z,15.30
2023-04-19T11:34:29.943Z,11.80
2023-04-19T11:39:31.374Z,14.07
2023-04-19T11:44:34.047Z,11.63
2023-04-19T11:49:36.483Z,11.60
2023-04-19T11:54:38.255Z,12.40
2023-04-19T11:59:39.616Z,12.53
2023-04-19T12:04:41.217Z,14.80
2023-04-19T12:09:42.738Z,12.55
2023-04-19T12:14:52.137Z,12.80
2023-04-19T12:19:53.451Z,11.23
2023-04-19T12:24:55.843Z,14.43
2023-04-19T12:29:57.175Z,15.63
2023-04-19T12:34:58.473Z,16.50
2023-04-19T12:39:59.790Z,14.73
2023-04-19T12:45:01.281Z,12.00
2023-04-19T12:50:02.833Z,11.05
2023-04-19T12:55:04.496Z,14.30
2023-04-19T13:00:07.265Z,15.30
2023-04-19T13:05:08.784Z,17.17
2023-04-19T13:10:10.267Z,16.30
2023-04-19T13:15:11.791Z,21.02
2023-04-19T13:20:13.132Z,17.33
2023-04-19T13:25:14.457Z,16.60
2023-04-19T13:30:15.877Z,18.30
2023-04-19T13:35:17.205Z,16.63
2023-04-19T13:40:21.796Z,17.23
2023-04-19T13:45:23.307Z,22.20
2023-04-19T13:50:24.617Z,14.83
2023-04-19T13:55:26.592Z,14.20
2023-04-19T14:00:28.286Z,13.63
2023-04-19T14:05:29.808Z,18.33
2023-04-19T14:10:31.157Z,16.67
2023-04-19T14:15:40.012Z,13.83
2023-04-19T14:20:41.355Z,20.75
2023-04-19T14:25:42.677Z,19.15
2023-04-19T14:30:43.938Z,18.37
2023-04-19T14:35:45.243Z,27.80
2023-04-19T14:40:46.546Z,19.47
2023-04-19T14:45:49.442Z,19.25
2023-04-19T14:50:50.971Z,17.15
2023-04-19T14:55:52.257Z,18.63
2023-04-19T15:00:54.740Z,25.88
2023-04-19T15:05:56.070Z,17.57
2023-04-19T15:10:57.417Z,21.00
2023-04-19T15:16:00.566Z,20.90
2023-04-19T15:21:03.663Z,19.23
2023-04-19T15:26:04.983Z,61.80
2023-04-19T15:31:06.956Z,41.85
2023-04-19T15:36:08.370Z,47.17
2023-04-19T15:41:09.632Z,21.95
2023-04-19T15:46:14.667Z,24.03
2023-04-19T15:51:16.235Z,31.27
2023-04-19T15:56:17.526Z,16.20
2023-04-19T16:01:22.843Z,16.50
2023-04-19T16:06:24.369Z,15.60
2023-04-19T16:11:25.721Z,16.10
2023-04-19T16:16:30.826Z,19.50
2023-04-19T16:21:32.353Z,11.70
2023-04-19T16:26:33.717Z,8.80
2023-04-19T16:31:35.007Z,7.82
2023-04-19T16:36:36.388Z,8.93
2023-04-19T16:41:37.698Z,9.73
2023-04-19T16:46:38.985Z,15.52
2023-04-19T16:51:40.331Z,10.90
2023-04-19T16:56:41.671Z,9.73
2023-04-19T17:01:44.264Z,8.43
2023-04-19T17:06:45.703Z,9.00
2023-04-19T17:11:47.036Z,10.00
2023-04-19T17:16:48.423Z,13.13
2023-04-19T17:21:49.701Z,9.73
2023-04-19T17:26:51.017Z,11.07
2023-04-19T17:31:52.445Z,12.13
2023-04-19T17:36:54.163Z,10.13
2023-04-19T17:41:56.192Z,14.47
2023-04-19T17:46:57.610Z,9.82
2023-04-19T17:51:58.945Z,8.97
2023-04-19T17:57:02.378Z,7.60
2023-04-19T18:02:03.803Z,5.78
2023-04-19T18:07:05.093Z,5.67
2023-04-19T18:12:06.528Z,7.78
2023-04-19T18:17:08.033Z,6.93
2023-04-19T18:22:09.408Z,6.65
2023-04-19T18:27:10.848Z,6.47
2023-04-19T18:32:15.198Z,5.87
2023-04-19T18:37:17.143Z,5.90
2023-04-19T18:42:18.437Z,4.87
2023-04-19T18:47:19.757Z,7.25
2023-04-19T18:52:21.038Z,8.13
2023-04-19T18:57:26.565Z,8.40
2023-04-19T19:02:28.717Z,10.45
2023-04-19T19:12:34.770Z,6.55
2023-04-19T19:17:36.224Z,6.35
2023-04-19T19:22:37.612Z,5.23
2023-04-19T19:27:39.015Z,6.50
2023-04-19T19:32:40.454Z,10.03
2023-04-19T19:37:41.824Z,6.63
2023-04-19T19:42:43.155Z,8.35
2023-04-19T19:47:46.112Z,9.77
2023-04-19T19:52:49.802Z,10.80
2023-04-19T20:02:56.824Z,8.98
2023-04-19T20:08:10.075Z,11.45
2023-04-19T20:13:13.184Z,10.47
2023-04-19T20:18:14.713Z,11.90
2023-04-19T20:23:16.708Z,10.13
2023-04-19T20:28:18.091Z,9.60
2023-04-19T20:33:19.383Z,7.85
2023-04-19T20:38:23.276Z,11.00
2023-04-19T20:43:24.590Z,13.07
2023-04-19T20:48:26.069Z,9.33
2023-04-19T20:53:27.397Z,10.50
2023-04-19T20:58:28.656Z,10.07
2023-04-19T21:03:30.082Z,9.17
2023-04-19T21:08:31.545Z,10.75
2023-04-19T21:13:33.200Z,11.70
2023-04-19T21:18:34.508Z,11.98
2023-04-19T21:23:35.858Z,14.82
2023-04-19T21:28:37.160Z,21.83
2023-04-19T21:33:38.408Z,8.95
2023-04-19T21:38:39.712Z,9.73
2023-04-19T21:43:40.974Z,9.00
2023-04-19T21:48:42.244Z,8.30
2023-04-19T21:53:43.867Z,10.03
2023-04-19T21:58:45.148Z,9.25
2023-04-19T22:03:47.104Z,8.73
2023-04-19T22:08:49.595Z,7.63
2023-04-19T22:13:51.261Z,10.18
2023-04-19T22:18:52.959Z,10.33
2023-04-19T22:23:54.257Z,8.52
2023-04-19T22:28:55.751Z,8.27
2023-04-19T22:33:57.039Z,10.00
2023-04-19T22:38:58.325Z,6.93
2023-04-19T22:44:00.022Z,7.97
2023-04-19T22:49:02.003Z,6.97
2023-04-19T22:54:03.626Z,7.30
2023-04-19T22:59:05.265Z,7.80
2023-04-19T23:04:06.622Z,10.20
2023-04-19T23:09:10.823Z,8.93
2023-04-19T23:14:12.749Z,7.78
2023-04-19T23:19:16.367Z,12.13
2023-04-19T23:24:17.876Z,9.20
2023-04-19T23:29:19.309Z,9.77
2023-04-19T23:34:20.873Z,7.37
2023-04-19T23:39:22.309Z,9.20
2023-04-19T23:44:23.562Z,9.83
2023-04-19T23:49:24.817Z,8.25
2023-04-19T23:59:27.771Z,8.53
